Time;durP1;ratioP1;P1;durP2;ratioP2;P2;SDS_P1;SDS_P2;PMS_P1;PMS_P2;Temp;Humidity;BMP_temperature;BMP_pressure;BME280_temperature;BME280_humidity;BME280_pressure;Samples;Min_cycle;Max_cycle;Signal;HPM_P1;HPM_P2
2022/08/11 00:01:21;;;;;;;5.85;5.50;;;20.30;99.90;;;;;;5057103;28;20185;-66
2022/08/11 00:03:52;;;;;;;9.70;9.20;;;20.30;99.90;;;;;;5063984;28;20208;-65
2022/08/11 00:06:35;;;;;;;6.80;6.20;;;20.20;99.90;;;;;;5062944;28;20298;-65
2022/08/11 00:09:05;;;;;;;6.18;5.50;;;20.10;99.90;;;;;;5048893;28;20201;-65
2022/08/11 00:11:33;;;;;;;5.45;5.07;;;20.00;99.90;;;;;;5058988;28;20618;-65
2022/08/11 00:13:59;;;;;;;4.50;4.20;;;20.00;99.90;;;;;;5052513;28;20568;-64
2022/08/11 00:16:25;;;;;;;4.20;3.90;;;19.90;99.90;;;;;;5068267;28;20202;-64
2022/08/11 00:18:56;;;;;;;5.73;4.57;;;19.90;99.90;;;;;;5061135;28;20258;-66
2022/08/11 00:21:24;;;;;;;3.80;3.60;;;19.70;99.90;;;;;;5060270;28;20190;-65
2022/08/11 00:24:00;;;;;;;4.03;3.73;;;19.70;99.90;;;;;;5068478;28;20175;-65
2022/08/11 00:26:27;;;;;;;5.90;4.07;;;19.60;99.90;;;;;;5052634;28;20237;-65
2022/08/11 00:28:54;;;;;;;4.20;3.83;;;19.60;99.90;;;;;;5068220;28;20632;-65
2022/08/11 00:31:30;;;;;;;4.30;4.00;;;19.50;99.90;;;;;;5060741;28;20213;-64
2022/08/11 00:33:59;;;;;;;5.83;4.30;;;19.50;99.90;;;;;;5063424;28;20668;-65
2022/08/11 00:36:38;;;;;;;8.13;4.50;;;19.40;99.90;;;;;;5064298;28;20210;-65
2022/08/11 00:39:06;;;;;;;5.10;4.60;;;19.30;99.90;;;;;;5055250;28;20216;-65
2022/08/11 00:41:50;;;;;;;5.87;4.73;;;19.30;99.90;;;;;;5071704;28;20234;-65
2022/08/11 00:44:34;;;;;;;4.53;4.23;;;19.20;99.90;;;;;;5046710;28;20554;-66
2022/08/11 00:47:32;;;;;;;5.03;4.67;;;19.10;99.90;;;;;;5044386;28;20260;-65
2022/08/11 00:50:23;;;;;;;4.87;4.57;;;19.00;99.90;;;;;;5071079;28;20255;-65
2022/08/11 00:53:07;;;;;;;5.50;5.10;;;18.90;99.90;;;;;;5053522;28;20536;-65
2022/08/11 00:55:54;;;;;;;5.30;5.00;;;18.90;99.90;;;;;;5066382;28;20270;-66
2022/08/11 00:58:47;;;;;;;5.43;5.03;;;18.90;99.90;;;;;;5057680;28;20183;-65
2022/08/11 01:01:15;;;;;;;5.53;5.13;;;18.90;99.90;;;;;;5064977;28;20182;-66
2022/08/11 01:04:03;;;;;;;4.60;4.30;;;18.80;99.90;;;;;;5062527;28;20178;-66
2022/08/11 01:07:13;;;;;;;5.30;4.90;;;18.80;99.90;;;;;;5058434;28;20198;-64
2022/08/11 01:09:42;;;;;;;8.57;5.70;;;18.70;99.90;;;;;;5063044;28;20186;-65
2022/08/11 01:12:32;;;;;;;5.40;4.90;;;18.70;99.90;;;;;;5057244;28;20194;-65
2022/08/11 01:15:31;;;;;;;5.43;5.00;;;18.70;99.90;;;;;;5053397;28;20178;-65
2022/08/11 01:18:23;;;;;;;5.90;5.40;;;18.70;99.90;;;;;;5068893;28;20206;-65
2022/08/11 01:21:06;;;;;;;6.40;5.80;;;18.60;99.90;;;;;;5052075;28;20770;-65
2022/08/11 01:23:38;;;;;;;6.73;6.13;;;18.60;99.90;;;;;;5070875;28;20284;-66
2022/08/11 01:26:09;;;;;;;6.30;5.90;;;18.50;99.90;;;;;;5051908;28;20201;-65
2022/08/11 01:29:03;;;;;;;5.43;5.07;;;18.50;99.90;;;;;;5066288;28;20206;-65
2022/08/11 01:31:37;;;;;;;4.83;4.53;;;18.50;99.90;;;;;;5062911;28;20173;-64
2022/08/11 01:34:36;;;;;;;6.10;5.60;;;18.50;99.90;;;;;;5059958;28;20920;-65
2022/08/11 01:37:39;;;;;;;5.77;5.37;;;18.40;99.90;;;;;;5061206;28;20210;-66
2022/08/11 01:40:17;;;;;;;7.07;6.37;;;18.30;99.90;;;;;;5060239;28;20295;-65
2022/08/11 01:46:15;;;;;;;6.80;6.40;;;18.20;99.90;;;;;;5056382;28;20251;-63
2022/08/11 01:48:48;;;;;;;7.23;6.77;;;18.20;99.90;;;;;;5062510;28;20195;-65
2022/08/11 01:51:23;;;;;;;6.53;5.80;;;18.10;99.90;;;;;;5053708;28;20182;-66
2022/08/11 01:54:04;;;;;;;6.03;5.67;;;18.10;99.90;;;;;;5047593;28;20174;-66
2022/08/11 01:56:48;;;;;;;5.83;5.43;;;18.00;99.90;;;;;;5045072;28;20806;-66
2022/08/11 01:59:34;;;;;;;5.03;4.63;;;18.00;99.90;;;;;;5074040;28;20636;-66
2022/08/11 02:02:46;;;;;;;6.07;5.70;;;18.00;99.90;;;;;;5057706;28;20221;-65
2022/08/11 02:05:49;;;;;;;5.77;5.27;;;18.00;99.90;;;;;;5073110;28;20180;-66
2022/08/11 02:08:39;;;;;;;5.87;5.37;;;18.00;99.90;;;;;;5055917;28;20206;-65
2022/08/11 02:14:21;;;;;;;5.97;5.57;;;17.90;99.90;;;;;;5070655;28;20201;-65
2022/08/11 02:17:04;;;;;;;5.57;5.27;;;17.90;99.90;;;;;;5064757;28;20198;-65
2022/08/11 02:26:34;;;;;;;6.10;5.53;;;17.70;99.90;;;;;;4994660;28;20663;-64
2022/08/11 02:29:29;;;;;;;5.40;5.10;;;17.70;99.90;;;;;;5070805;28;20650;-64
2022/08/11 02:35:17;;;;;;;6.40;4.90;;;17.60;99.90;;;;;;5051124;28;20174;-66
2022/08/11 02:38:15;;;;;;;6.03;5.53;;;17.50;99.90;;;;;;5067900;28;20194;-65
2022/08/11 02:42:21;;;;;;;5.40;5.00;;;17.50;99.90;;;;;;5048588;28;20178;-66
2022/08/11 02:44:34;;;;;;;6.23;5.57;;;17.40;99.90;;;;;;5049374;28;20232;-66
2022/08/11 02:47:08;;;;;;;6.63;5.20;;;17.40;99.90;;;;;;5048771;28;20203;-65
2022/08/11 02:50:02;;;;;;;5.30;4.97;;;17.30;99.90;;;;;;5051143;28;20174;-65
2022/08/11 02:52:46;;;;;;;5.20;4.80;;;17.30;99.90;;;;;;5050895;28;20198;-65
2022/08/11 02:55:31;;;;;;;5.83;5.40;;;17.20;99.90;;;;;;5070641;28;20174;-64
2022/08/11 02:58:20;;;;;;;5.70;5.30;;;17.20;99.90;;;;;;5058744;28;20285;-64
2022/08/11 03:01:15;;;;;;;6.10;5.70;;;17.10;99.90;;;;;;5065686;28;20186;-66
2022/08/11 03:04:00;;;;;;;6.50;6.00;;;17.10;99.90;;;;;;5060156;28;20182;-67
2022/08/11 03:06:32;;;;;;;5.50;5.10;;;17.10;99.90;;;;;;5063816;28;20202;-66
2022/08/11 03:09:01;;;;;;;7.00;5.63;;;17.00;99.90;;;;;;5065814;28;20202;-65
2022/08/11 03:18:10;;;;;;;6.90;5.77;;;17.00;99.90;;;;;;5059234;28;20582;-64
2022/08/11 03:20:56;;;;;;;5.13;4.77;;;16.90;99.90;;;;;;5056413;28;20633;-64
2022/08/11 03:23:32;;;;;;;5.60;5.10;;;16.90;99.90;;;;;;5072565;28;20188;-65
2022/08/11 03:26:01;;;;;;;9.20;5.60;;;16.90;99.90;;;;;;5053543;28;20240;-64
2022/08/11 03:28:52;;;;;;;7.27;6.60;;;16.90;99.90;;;;;;5070892;28;20205;-64
2022/08/11 03:31:23;;;;;;;5.90;5.50;;;16.80;99.90;;;;;;5057153;28;20687;-65
2022/08/11 03:34:03;;;;;;;6.70;6.00;;;16.80;99.90;;;;;;5046397;28;20167;-65
2022/08/11 03:36:53;;;;;;;7.20;6.60;;;16.90;99.90;;;;;;5061445;28;20222;-65
2022/08/11 03:39:45;;;;;;;6.10;5.63;;;16.80;99.90;;;;;;5061277;28;20201;-63
2022/08/11 03:42:49;;;;;;;7.00;6.50;;;16.70;99.90;;;;;;5066215;28;20197;-66
2022/08/11 03:45:17;;;;;;;5.67;5.30;;;16.70;99.90;;;;;;5060389;28;20177;-65
2022/08/11 03:47:51;;;;;;;5.73;5.10;;;16.70;99.90;;;;;;5056339;28;20738;-64
2022/08/11 03:50:54;;;;;;;5.97;5.57;;;16.70;99.90;;;;;;5073089;28;20182;-66
2022/08/11 03:53:38;;;;;;;6.13;5.63;;;16.70;99.90;;;;;;5065344;28;20216;-66
2022/08/11 03:56:25;;;;;;;6.43;5.83;;;16.70;99.90;;;;;;5050387;28;20207;-65
2022/08/11 03:59:16;;;;;;;7.27;6.67;;;16.60;99.90;;;;;;5072633;28;20189;-66
2022/08/11 04:02:08;;;;;;;6.37;5.87;;;16.60;99.90;;;;;;5054406;28;20217;-64
2022/08/11 04:05:01;;;;;;;6.30;5.80;;;16.60;99.90;;;;;;5069408;28;20186;-66
2022/08/11 04:07:55;;;;;;;6.37;5.93;;;16.50;99.90;;;;;;5056551;28;20207;-65
2022/08/11 04:10:21;;;;;;;9.83;6.33;;;16.40;99.90;;;;;;5063839;28;20579;-66
2022/08/11 04:12:56;;;;;;;7.83;7.30;;;16.30;99.90;;;;;;5061640;28;20197;-65
2022/08/11 04:16:00;;;;;;;7.57;7.07;;;16.20;99.90;;;;;;5059548;28;20186;-66
2022/08/11 04:18:38;;;;;;;9.07;6.73;;;16.20;99.90;;;;;;5030403;28;20533;-65
2022/08/11 04:21:06;;;;;;;6.77;6.27;;;16.30;99.90;;;;;;5049487;28;20185;-65
2022/08/11 04:24:17;;;;;;;6.70;6.20;;;16.30;99.90;;;;;;5062342;28;20183;-65
2022/08/11 04:27:37;;;;;;;6.87;5.87;;;16.30;99.90;;;;;;5051006;28;20221;-64
2022/08/11 04:30:26;;;;;;;6.20;5.70;;;16.40;99.90;;;;;;5025831;28;20622;-66
2022/08/11 04:32:57;;;;;;;6.10;5.70;;;16.30;99.90;;;;;;5060549;28;20178;-64
2022/08/11 04:35:52;;;;;;;7.60;7.10;;;16.30;99.90;;;;;;5052085;28;20213;-65
2022/08/11 04:38:51;;;;;;;7.63;7.03;;;16.30;99.90;;;;;;5048703;28;20186;-64
2022/08/11 04:43:19;;;;;;;7.80;7.10;;;16.30;99.90;;;;;;5072003;28;20182;-64
2022/08/11 04:44:56;;;;;;;9.20;8.30;;;16.40;99.90;;;;;;5047154;28;20268;-64
2022/08/11 05:07:36;;;;;;;6.87;6.27;;;17.00;99.90;;;;;;5059766;28;20324;-65
2022/08/11 05:10:38;;;;;;;7.47;6.77;;;17.10;99.90;;;;;;5061531;28;20636;-64
2022/08/11 05:36:17;;;;;;;8.10;5.63;;;18.10;99.90;;;;;;5047990;28;20262;-65
2022/08/11 05:58:41;;;;;;;5.37;4.97;;;19.50;99.90;;;;;;5058879;28;20400;-66
2022/08/11 06:01:07;;;;;;;5.80;5.00;;;19.70;99.90;;;;;;5059322;28;20258;-66
2022/08/11 06:04:12;;;;;;;5.32;4.82;;;19.90;99.90;;;;;;5066448;28;20183;-65
2022/08/11 06:06:21;;;;;;;4.90;4.50;;;20.10;99.90;;;;;;5053089;28;20278;-65
2022/08/11 06:08:48;;;;;;;7.05;5.15;;;20.20;99.90;;;;;;5070523;28;20690;-66
2022/08/11 06:11:16;;;;;;;6.27;4.97;;;20.40;99.90;;;;;;5053116;28;20276;-65
2022/08/11 06:13:46;;;;;;;8.77;4.50;;;20.50;99.90;;;;;;5063636;28;20202;-65
2022/08/11 06:16:14;;;;;;;7.32;4.88;;;20.70;99.90;;;;;;5057240;28;20690;-65
2022/08/11 06:18:46;;;;;;;8.80;4.93;;;20.90;99.90;;;;;;5066420;28;20262;-66
2022/08/11 06:21:12;;;;;;;8.35;4.70;;;21.30;99.90;;;;;;5053301;28;20186;-65
2022/08/11 06:23:39;;;;;;;6.05;3.92;;;21.80;99.90;;;;;;5050746;28;20179;-66
2022/08/11 06:26:09;;;;;;;4.75;4.45;;;22.40;99.90;;;;;;5050756;28;20194;-65
2022/08/11 06:28:37;;;;;;;6.60;4.55;;;22.90;99.90;;;;;;5046544;28;20566;-65
2022/08/11 06:31:22;;;;;;;5.15;3.95;;;23.40;99.90;;;;;;5054338;28;20175;-65
2022/08/11 06:34:07;;;;;;;4.50;4.10;;;23.70;99.90;;;;;;5053147;28;20174;-65
2022/08/11 06:37:05;;;;;;;3.92;3.63;;;24.00;99.90;;;;;;5042275;28;20214;-66
2022/08/11 06:39:43;;;;;;;4.93;4.57;;;24.40;99.90;;;;;;5040811;28;20238;-65
2022/08/11 06:42:35;;;;;;;4.43;4.03;;;24.70;99.90;;;;;;5050614;28;20175;-65
2022/08/11 06:45:07;;;;;;;8.68;4.32;;;25.00;99.90;;;;;;5026523;28;20278;-65
2022/08/11 06:47:34;;;;;;;6.60;4.55;;;25.40;99.90;;;;;;5034671;28;20192;-66
2022/08/11 06:52:46;;;;;;;5.63;5.00;;;25.90;99.90;;;;;;5034814;28;20636;-66
2022/08/11 07:00:26;;;;;;;5.47;5.10;;;26.10;99.90;;;;;;5039271;28;20725;-66
2022/08/11 07:01:09;;;;;;;4.75;4.35;;;26.50;99.90;;;;;;5054801;28;20579;-65
2022/08/11 07:03:43;;;;;;;5.57;3.80;;;26.70;99.90;;;;;;5054156;28;20178;-66
2022/08/11 07:06:29;;;;;;;4.57;4.07;;;26.70;99.90;;;;;;5054282;28;20668;-67
2022/08/11 07:29:11;;;;;;;4.55;3.92;;;28.30;99.90;;;;;;5053923;28;20248;-66
2022/08/11 07:31:40;;;;;;;5.03;3.60;;;28.30;99.90;;;;;;5053784;28;20195;-66
2022/08/11 07:34:12;;;;;;;4.60;3.33;;;28.40;99.20;;;;;;5053567;28;20193;-66
2022/08/11 07:36:41;;;;;;;4.32;3.92;;;28.60;99.20;;;;;;5053611;28;20653;-66
2022/08/11 07:39:14;;;;;;;5.35;3.70;;;28.80;98.90;;;;;;5053648;28;20185;-66
2022/08/11 07:41:40;;;;;;;4.40;4.05;;;29.10;98.50;;;;;;5053892;28;20584;-65
2022/08/11 07:44:10;;;;;;;4.32;4.03;;;29.20;96.50;;;;;;5053423;28;20194;-67
2022/08/11 07:52:29;;;;;;;6.50;3.55;;;29.60;95.10;;;;;;5053825;28;20285;-65
2022/08/11 07:54:57;;;;;;;5.10;3.60;;;29.80;94.40;;;;;;5052190;28;20171;-66
2022/08/11 08:19:24;;;;;;;8.27;3.30;;;31.10;91.40;;;;;;5052998;28;20182;-66
2022/08/11 08:21:51;;;;;;;3.78;3.47;;;31.50;87.70;;;;;;5052903;28;20183;-65
2022/08/11 08:24:19;;;;;;;8.75;3.72;;;31.70;86.00;;;;;;5052625;28;20201;-66
2022/08/11 08:26:58;;;;;;;5.20;3.72;;;31.70;83.50;;;;;;5052751;28;20219;-65
2022/08/11 08:32:17;;;;;;;4.60;3.50;;;31.90;81.10;;;;;;5053351;28;20533;-66
2022/08/11 08:34:43;;;;;;;3.22;3.03;;;31.90;80.90;;;;;;5052261;28;20167;-67
2022/08/11 08:37:09;;;;;;;6.07;3.10;;;32.00;80.10;;;;;;5052531;28;20703;-66
2022/08/11 08:39:36;;;;;;;7.20;3.30;;;32.00;79.30;;;;;;5052668;28;20190;-67
2022/08/11 08:42:09;;;;;;;4.05;3.65;;;32.20;78.80;;;;;;5052550;28;20179;-66
2022/08/11 08:44:39;;;;;;;3.47;3.20;;;32.40;77.50;;;;;;5052232;28;20510;-65
2022/08/11 08:47:07;;;;;;;4.95;3.30;;;32.10;76.60;;;;;;5052239;28;20648;-67
2022/08/11 08:49:38;;;;;;;4.15;3.85;;;32.20;79.00;;;;;;5052515;28;20182;-65
2022/08/11 08:52:06;;;;;;;9.13;3.40;;;32.60;77.60;;;;;;5052402;28;20171;-66
2022/08/11 08:54:37;;;;;;;4.00;3.60;;;33.00;73.90;;;;;;5051953;28;20167;-67
2022/08/11 08:57:05;;;;;;;3.65;3.05;;;33.20;75.50;;;;;;5052134;28;20194;-67
2022/08/11 08:59:37;;;;;;;4.65;3.28;;;33.40;73.90;;;;;;5052296;28;20171;-66
2022/08/11 09:02:05;;;;;;;4.57;2.92;;;33.70;70.50;;;;;;5052179;28;20179;-66
2022/08/11 09:04:32;;;;;;;11.70;3.30;;;34.00;71.80;;;;;;5051919;28;20533;-66
2022/08/11 09:07:02;;;;;;;4.35;3.03;;;34.50;72.90;;;;;;5051933;28;20190;-66
2022/08/11 09:09:28;;;;;;;5.45;2.88;;;35.00;70.90;;;;;;5052181;28;20219;-67
2022/08/11 09:11:54;;;;;;;8.27;4.07;;;35.30;69.40;;;;;;5051983;28;20311;-66
2022/08/11 09:17:23;;;;;;;4.78;3.30;;;35.50;62.70;;;;;;5052280;28;20205;-66
2022/08/11 09:19:59;;;;;;;3.92;3.40;;;35.60;64.80;;;;;;5051836;28;20662;-65
2022/08/11 09:27:57;;;;;;;4.05;3.22;;;35.90;59.50;;;;;;5051798;28;20209;-67
2022/08/11 09:30:25;;;;;;;3.50;3.13;;;36.00;60.20;;;;;;5051776;28;20568;-65
2022/08/11 09:32:59;;;;;;;3.67;3.42;;;35.80;59.00;;;;;;5051519;28;20174;-66
2022/08/11 09:35:30;;;;;;;4.35;2.97;;;35.80;57.10;;;;;;5051295;28;20579;-65
2022/08/11 09:40:47;;;;;;;4.57;3.55;;;35.60;54.80;;;;;;5051878;28;20228;-66
2022/08/11 09:46:00;;;;;;;5.03;4.57;;;35.20;55.80;;;;;;5051506;28;20220;-67
2022/08/11 09:48:29;;;;;;;4.40;3.20;;;35.30;55.60;;;;;;5051745;28;20267;-65
2022/08/11 09:50:58;;;;;;;5.65;3.15;;;35.50;53.50;;;;;;5051335;28;20288;-65
2022/08/11 09:53:26;;;;;;;3.70;3.10;;;35.50;52.70;;;;;;5051364;28;20171;-66
2022/08/11 09:55:52;;;;;;;3.75;3.17;;;35.60;54.70;;;;;;5051520;28;20191;-65
2022/08/11 09:58:20;;;;;;;4.75;3.65;;;35.80;54.40;;;;;;5051527;28;20181;-65
2022/08/11 10:00:48;;;;;;;7.57;4.45;;;36.20;52.30;;;;;;5051446;28;20166;-65
2022/08/11 10:03:20;;;;;;;4.90;4.10;;;36.30;52.10;;;;;;5051659;28;20178;-65
2022/08/11 10:08:40;;;;;;;5.13;3.38;;;36.70;51.00;;;;;;5051462;28;20317;-65
2022/08/11 10:11:11;;;;;;;3.50;3.20;;;36.60;48.90;;;;;;5051148;28;20202;-66
2022/08/11 10:16:38;;;;;;;3.20;2.95;;;36.10;48.90;;;;;;5051528;28;20272;-65
2022/08/11 10:19:04;;;;;;;3.03;2.75;;;36.10;47.10;;;;;;5053190;28;20202;-66
2022/08/11 10:26:48;;;;;;;4.30;3.33;;;36.10;45.20;;;;;;5055304;28;20550;-66
2022/08/11 10:27:15;;;;;;;3.60;2.75;;;36.20;46.10;;;;;;5055659;28;20225;-65
2022/08/11 10:35:16;;;;;;;4.80;2.60;;;36.20;45.20;;;;;;5053387;28;20621;-66
2022/08/11 10:37:44;;;;;;;3.83;2.90;;;36.60;46.30;;;;;;5059630;28;20198;-67
2022/08/11 10:40:14;;;;;;;3.05;2.78;;;36.80;46.40;;;;;;5074236;28;20666;-67
2022/08/11 10:48:10;;;;;;;4.47;4.20;;;38.40;46.50;;;;;;5060011;28;20232;-66
2022/08/11 10:58:55;;;;;;;5.22;4.82;;;38.90;43.60;;;;;;5065694;28;20204;-66
2022/08/11 11:01:28;;;;;;;6.30;5.90;;;38.90;44.20;;;;;;5074063;28;20593;-67
2022/08/11 11:03:58;;;;;;;6.25;5.95;;;38.50;43.60;;;;;;5055033;28;20186;-65
2022/08/11 11:06:55;;;;;;;6.60;6.20;;;38.50;42.50;;;;;;5068053;28;20631;-65
2022/08/11 11:09:31;;;;;;;3.95;3.60;;;38.50;42.20;;;;;;5052072;28;20222;-65
2022/08/11 11:18:10;;;;;;;5.25;4.95;;;37.90;43.70;;;;;;5061315;28;20400;-66
2022/08/11 11:20:44;;;;;;;10.75;4.18;;;38.00;40.90;;;;;;5065588;28;20183;-64
2022/08/11 11:23:25;;;;;;;3.42;3.17;;;37.40;42.50;;;;;;5056440;28;20222;-64
2022/08/11 11:26:08;;;;;;;4.43;3.15;;;37.10;40.80;;;;;;5068841;28;20187;-65
2022/08/11 11:29:01;;;;;;;4.50;4.18;;;37.20;43.60;;;;;;5049583;28;20202;-65
2022/08/11 11:31:51;;;;;;;4.22;3.92;;;37.40;41.20;;;;;;5046252;28;20173;-65
2022/08/11 11:34:30;;;;;;;4.90;4.60;;;37.30;41.40;;;;;;5061775;28;20171;-64
2022/08/11 11:36:59;;;;;;;7.07;6.40;;;36.90;40.60;;;;;;5069179;28;20201;-63
2022/08/11 11:39:31;;;;;;;4.38;4.07;;;36.90;40.10;;;;;;5060388;28;20671;-65
2022/08/11 11:42:00;;;;;;;4.78;4.47;;;36.90;40.40;;;;;;5054711;28;20205;-64
2022/08/11 11:44:27;;;;;;;4.40;3.72;;;36.90;39.50;;;;;;5057010;28;20171;-64
2022/08/11 11:46:53;;;;;;;4.47;4.18;;;37.10;38.80;;;;;;5072699;28;20225;-64
2022/08/11 11:49:31;;;;;;;5.88;4.00;;;36.90;38.90;;;;;;5055065;28;20747;-66
2022/08/11 11:51:58;;;;;;;6.13;4.05;;;36.80;43.70;;;;;;5069022;28;20264;-65
2022/08/11 11:54:26;;;;;;;5.43;5.13;;;37.10;39.60;;;;;;5061807;28;20171;-66
2022/08/11 11:56:55;;;;;;;6.82;6.38;;;37.60;40.80;;;;;;5060142;28;20193;-67
2022/08/11 12:02:12;;;;;;;4.82;4.50;;;38.10;39.20;;;;;;5072577;28;20248;-66
2022/08/11 12:04:41;;;;;;;3.03;2.83;;;38.30;38.90;;;;;;5054160;28;20648;-66
2022/08/11 12:09:53;;;;;;;5.88;5.47;;;37.90;39.70;;;;;;5062571;28;20189;-67
2022/08/11 12:15:05;;;;;;;3.42;3.13;;;38.20;39.60;;;;;;5060418;28;20185;-66
2022/08/11 12:17:30;;;;;;;5.55;5.15;;;38.20;37.50;;;;;;5064017;28;20206;-66
2022/08/11 12:19:56;;;;;;;5.20;3.03;;;37.80;38.00;;;;;;5072330;28;20174;-67
2022/08/11 12:27:54;;;;;;;10.35;5.20;;;37.60;37.40;;;;;;5059714;28;20244;-66
2022/08/11 12:30:20;;;;;;;5.80;5.45;;;37.90;37.10;;;;;;5064616;28;20182;-66
2022/08/11 12:32:45;;;;;;;4.53;4.30;;;37.50;39.00;;;;;;5067399;28;20198;-66
2022/08/11 12:35:14;;;;;;;5.05;4.65;;;37.50;37.70;;;;;;5059819;28;20187;-66
2022/08/11 12:37:44;;;;;;;3.95;3.35;;;37.60;37.30;;;;;;5052554;28;20206;-65
2022/08/11 12:45:51;;;;;;;3.58;3.25;;;37.80;37.90;;;;;;5063761;28;20613;-65
2022/08/11 12:54:11;;;;;;;5.72;5.30;;;38.00;36.70;;;;;;5067821;28;20197;-66
2022/08/11 13:05:10;;;;;;;4.07;2.97;;;38.70;37.80;;;;;;5045721;28;20388;-66
2022/08/11 13:07:38;;;;;;;5.25;3.20;;;39.30;34.80;;;;;;5069648;28;20202;-66
2022/08/11 13:10:06;;;;;;;3.40;3.10;;;39.70;37.30;;;;;;5057869;28;20201;-66
2022/08/11 13:12:47;;;;;;;3.00;2.80;;;39.40;36.90;;;;;;5060771;28;20192;-66
2022/08/11 13:15:22;;;;;;;3.17;2.70;;;38.90;35.10;;;;;;5064549;28;20209;-66
2022/08/11 13:17:51;;;;;;;6.88;3.45;;;38.80;37.00;;;;;;5068083;28;20201;-66
2022/08/11 13:20:20;;;;;;;4.72;4.43;;;38.30;35.60;;;;;;5052050;28;20277;-66
2022/08/11 13:22:49;;;;;;;4.13;3.75;;;38.20;35.80;;;;;;5067994;28;20277;-65
2022/08/11 13:25:17;;;;;;;4.95;4.05;;;38.10;35.50;;;;;;5065911;28;20186;-65
2022/08/11 13:27:47;;;;;;;3.50;2.90;;;38.30;35.70;;;;;;5060825;28;20263;-66
2022/08/11 13:32:59;;;;;;;3.28;2.97;;;38.30;33.50;;;;;;5067285;28;20694;-65
2022/08/11 13:35:26;;;;;;;3.78;3.40;;;38.60;34.50;;;;;;5051293;28;20541;-65
2022/08/11 13:37:52;;;;;;;3.30;3.00;;;38.90;33.90;;;;;;5070152;28;20205;-65
2022/08/11 13:40:21;;;;;;;3.33;2.95;;;39.30;35.50;;;;;;5056878;28;20194;-65
2022/08/11 13:42:48;;;;;;;3.65;2.80;;;39.40;35.40;;;;;;5061206;28;20185;-65
2022/08/11 13:45:14;;;;;;;5.40;3.42;;;39.70;33.10;;;;;;5065133;28;20187;-65
2022/08/11 13:47:41;;;;;;;2.90;2.60;;;40.10;35.00;;;;;;5052148;28;20567;-65
2022/08/11 13:50:08;;;;;;;2.70;2.50;;;40.10;33.50;;;;;;5058874;28;20181;-66
2022/08/11 13:52:38;;;;;;;3.28;2.97;;;39.30;32.10;;;;;;5066800;28;20187;-66
2022/08/11 13:55:05;;;;;;;3.33;3.08;;;38.90;34.00;;;;;;5054874;28;20174;-66
2022/08/11 13:57:32;;;;;;;8.63;3.90;;;38.90;34.10;;;;;;5063561;28;20245;-65
2022/08/11 14:00:08;;;;;;;3.25;3.03;;;39.10;33.30;;;;;;5053915;28;20593;-66
2022/08/11 14:02:36;;;;;;;3.00;2.80;;;39.30;33.30;;;;;;5070889;28;20189;-66
2022/08/11 14:05:10;;;;;;;3.25;3.05;;;39.40;33.60;;;;;;5051114;28;20519;-65
2022/08/11 14:07:49;;;;;;;3.28;3.08;;;39.30;34.50;;;;;;5066945;28;20209;-65
2022/08/11 14:10:18;;;;;;;4.63;2.92;;;39.30;34.00;;;;;;5058273;28;20183;-65
2022/08/11 14:15:45;;;;;;;3.13;2.92;;;39.20;32.10;;;;;;5061468;28;20248;-65
2022/08/11 14:18:32;;;;;;;3.10;2.90;;;38.70;33.00;;;;;;5066890;28;20285;-66
2022/08/11 14:23:53;;;;;;;6.32;3.17;;;38.50;34.60;;;;;;5062014;28;20182;-65
2022/08/11 14:26:25;;;;;;;4.40;2.80;;;38.70;34.80;;;;;;5051216;28;20182;-66
2022/08/11 14:29:00;;;;;;;4.32;3.33;;;39.00;33.70;;;;;;5067669;28;20205;-66
2022/08/11 14:31:29;;;;;;;3.80;3.05;;;39.10;33.70;;;;;;5056842;28;20258;-66
2022/08/11 14:33:58;;;;;;;4.75;3.67;;;39.00;33.60;;;;;;5059818;28;20224;-66
2022/08/11 14:36:27;;;;;;;4.40;3.55;;;39.10;33.80;;;;;;5062516;28;20210;-65
2022/08/11 14:38:53;;;;;;;3.42;3.15;;;39.10;33.40;;;;;;5069542;28;20178;-65
2022/08/11 14:47:05;;;;;;;3.33;3.10;;;39.20;33.90;;;;;;5054654;28;20745;-66
2022/08/11 14:49:36;;;;;;;3.90;3.60;;;39.30;33.90;;;;;;5058457;28;20293;-66
2022/08/11 14:52:10;;;;;;;3.45;3.15;;;39.20;34.70;;;;;;5060885;28;20175;-64
2022/08/11 14:57:35;;;;;;;5.60;3.28;;;39.00;34.40;;;;;;5027923;28;20200;-66
2022/08/11 15:00:03;;;;;;;3.10;2.90;;;39.40;32.30;;;;;;5051581;28;20167;-66
2022/08/11 15:05:15;;;;;;;3.95;3.13;;;39.60;33.70;;;;;;5053571;28;20653;-66
2022/08/11 15:07:41;;;;;;;3.13;2.92;;;39.60;33.60;;;;;;5062236;28;20209;-66
2022/08/11 15:10:09;;;;;;;3.65;3.45;;;39.70;33.50;;;;;;5063060;28;20193;-66
2022/08/11 15:12:38;;;;;;;3.63;3.22;;;39.80;32.60;;;;;;5069131;28;20183;-66
2022/08/11 15:17:55;;;;;;;5.20;3.42;;;39.60;33.30;;;;;;5067225;28;20177;-67
2022/08/11 15:26:00;;;;;;;4.10;3.80;;;39.50;31.80;;;;;;5068843;28;20613;-67
2022/08/11 15:39:34;;;;;;;5.40;4.22;;;39.10;31.40;;;;;;5073968;28;20630;-66
2022/08/11 15:47:56;;;;;;;4.53;4.22;;;38.60;34.00;;;;;;5063396;28;20578;-66
2022/08/11 15:50:29;;;;;;;6.72;6.13;;;38.60;30.90;;;;;;5051921;28;20664;-65
2022/08/11 15:53:02;;;;;;;8.23;7.72;;;38.60;32.60;;;;;;5053285;28;20690;-65
2022/08/11 15:55:31;;;;;;;4.50;4.10;;;39.10;34.40;;;;;;5053185;28;20174;-66
2022/08/11 16:06:19;;;;;;;4.90;3.10;;;39.20;30.00;;;;;;5054251;28;20201;-66
2022/08/11 16:08:46;;;;;;;5.75;5.30;;;39.10;30.70;;;;;;5052604;28;20222;-66
2022/08/11 16:11:13;;;;;;;7.70;7.30;;;38.70;29.90;;;;;;5053363;28;20194;-65
2022/08/11 16:16:13;;;;;;;8.95;8.45;;;38.60;30.50;;;;;;5052576;28;20272;-66
2022/08/11 16:18:53;;;;;;;4.22;3.92;;;38.60;31.60;;;;;;5053362;28;20580;-66
2022/08/11 16:21:24;;;;;;;8.65;3.40;;;38.90;29.60;;;;;;5052975;28;20190;-67
2022/08/11 16:23:51;;;;;;;3.22;3.03;;;39.30;30.60;;;;;;5052667;28;20182;-67
2022/08/11 16:26:22;;;;;;;6.03;3.15;;;39.60;29.70;;;;;;5053270;28;20190;-66
2022/08/11 16:28:53;;;;;;;4.38;4.15;;;39.60;30.50;;;;;;5052852;28;20707;-66
2022/08/11 16:31:23;;;;;;;8.88;8.30;;;39.20;31.10;;;;;;5052815;28;20536;-66
2022/08/11 16:33:52;;;;;;;5.90;5.50;;;39.00;30.00;;;;;;5052400;28;20644;-67
2022/08/11 16:39:08;;;;;;;4.00;3.70;;;38.70;31.10;;;;;;5070897;28;20186;-67
2022/08/11 16:47:09;;;;;;;8.02;3.58;;;38.70;32.00;;;;;;5063835;28;20347;-67
2022/08/11 16:49:45;;;;;;;6.57;6.03;;;38.80;31.30;;;;;;5071975;28;20347;-66
2022/08/11 16:52:11;;;;;;;4.70;4.43;;;38.80;32.20;;;;;;5050032;28;20197;-66
2022/08/11 16:54:39;;;;;;;7.07;6.45;;;38.90;31.10;;;;;;5056520;28;20183;-66
2022/08/11 17:00:03;;;;;;;7.00;6.50;;;38.40;31.70;;;;;;5064086;28;20243;-65
2022/08/11 17:14:05;;;;;;;5.03;4.63;;;37.60;33.20;;;;;;5072056;28;20662;-66
2022/08/11 17:16:37;;;;;;;3.70;3.47;;;37.40;32.60;;;;;;5072235;28;20663;-65
2022/08/11 17:19:12;;;;;;;4.15;3.38;;;37.20;32.10;;;;;;5072041;28;20216;-66
2022/08/11 17:24:33;;;;;;;4.00;3.70;;;36.90;32.40;;;;;;5071977;28;20177;-66
2022/08/11 17:27:00;;;;;;;6.35;3.90;;;36.80;34.40;;;;;;5071612;28;20538;-66
2022/08/11 17:29:32;;;;;;;3.60;3.35;;;37.10;33.00;;;;;;5068889;28;20225;-66
2022/08/11 17:37:37;;;;;;;4.35;3.95;;;36.50;33.70;;;;;;5071662;28;20247;-66
2022/08/11 17:40:07;;;;;;;4.05;3.65;;;35.90;33.40;;;;;;5071866;28;20652;-67
2022/08/11 17:50:52;;;;;;;4.20;3.90;;;34.40;34.40;;;;;;5057254;28;20224;-65
2022/08/11 17:59:50;;;;;;;4.72;3.50;;;34.10;35.10;;;;;;5063671;28;20274;-66
2022/08/11 18:01:44;;;;;;;4.78;3.47;;;33.70;34.90;;;;;;5063081;28;20271;-65
2022/08/11 18:04:12;;;;;;;4.40;4.00;;;33.50;34.80;;;;;;5070264;28;20181;-65
2022/08/11 18:06:40;;;;;;;3.95;3.40;;;33.20;35.50;;;;;;5052812;28;20206;-67
